Bitte eine E-Mail-Adresse für das Benutzerkonto eingeben. Ein Bestätigungscode wird dann an diese verschickt. Sobald der Code vorliegt, kann ein neues Passwort für das Benutzerkonto festgelegt werden.

 

 

WebCam

  
Kamera Halle
Kamera Vorplatz
Wetter EDDS

METAR

EDDS 230820Z 28013KT 240V300 CAVOK 27/15 Q1017 NOSIG =


TAF

EDDS 230500Z 2306/2406 27006KT 9999 FEW040 BECMG 2307/2309 29012KT PROB40 TEMPO 2311/2317 29015G25KT BECMG 2317/2319 30007KT BECMG 2319/2321 24004KT =


SR/SS

03:19 / 19:27 UTC
(EDSO 23-06-2017)

Austräger der GPS Triangle WM 2017